Time;durP1;ratioP1;P1;durP2;ratioP2;P2;SDS_P1;SDS_P2;PMS_P1;PMS_P2;Temp;Humidity;BMP_temperature;BMP_pressure;BME280_temperature;BME280_humidity;BME280_pressure;Samples;Min_cycle;Max_cycle;Signal;HPM_P1;HPM_P2
2021/12/16 00:01:56;;;;;;;85.23;31.50;;;2.90;99.90;;;;;;5057877;28;20200;-83
2021/12/16 00:09:49;;;;;;;111.13;39.70;;;3.00;99.90;;;;;;5072726;28;20525;-82
2021/12/16 00:34:02;;;;;;;111.57;40.93;;;3.00;99.90;;;;;;5057014;28;20182;-82
2021/12/16 00:36:35;;;;;;;119.03;39.53;;;3.00;99.90;;;;;;5057962;28;20194;-83
2021/12/16 00:39:09;;;;;;;99.07;38.20;;;3.00;99.90;;;;;;5076239;28;20201;-83
2021/12/16 00:41:36;;;;;;;119.00;39.43;;;3.00;99.90;;;;;;5057962;28;20176;-82
2021/12/16 00:44:11;;;;;;;123.13;41.90;;;3.00;99.90;;;;;;5076123;28;20258;-83
2021/12/16 00:49:22;;;;;;;117.40;39.13;;;3.10;99.90;;;;;;5058927;28;20531;-83
2021/12/16 00:54:35;;;;;;;115.10;38.93;;;3.10;99.90;;;;;;5075752;28;20189;-83
2021/12/16 00:57:07;;;;;;;112.67;40.63;;;3.00;99.90;;;;;;5058422;28;20611;-82
2021/12/16 00:59:37;;;;;;;134.33;42.07;;;3.10;99.90;;;;;;5043419;28;20632;-83
2021/12/16 01:34:39;;;;;;;120.13;39.57;;;3.20;99.90;;;;;;5059638;28;20194;-82
2021/12/16 01:50:36;;;;;;;122.27;40.87;;;3.20;99.90;;;;;;5057064;28;20195;-83
2021/12/16 01:53:22;;;;;;;129.87;40.57;;;3.20;99.90;;;;;;5041305;28;20200;-83
2021/12/16 01:56:16;;;;;;;117.17;39.87;;;3.20;99.90;;;;;;5056862;28;20712;-83
2021/12/16 01:58:42;;;;;;;133.40;39.60;;;3.40;99.90;;;;;;5056708;28;20207;-83
2021/12/16 02:01:17;;;;;;;135.30;39.87;;;3.20;99.90;;;;;;5057170;28;20183;-83
2021/12/16 02:04:01;;;;;;;131.57;39.53;;;3.20;99.90;;;;;;5056582;28;20180;-83
2021/12/16 02:09:40;;;;;;;126.03;40.03;;;3.20;99.90;;;;;;5074343;28;20308;-83
2021/12/16 02:34:02;;;;;;;141.20;38.17;;;3.40;99.90;;;;;;5056938;28;20185;-83
2021/12/16 02:36:28;;;;;;;147.87;41.57;;;3.40;99.90;;;;;;5073637;28;20185;-83
2021/12/16 02:39:25;;;;;;;120.73;38.00;;;3.40;99.90;;;;;;5074159;28;20563;-83
2021/12/16 02:41:55;;;;;;;139.53;40.60;;;3.50;99.90;;;;;;5072586;28;20216;-83
2021/12/16 02:49:44;;;;;;;122.20;37.83;;;3.50;99.90;;;;;;5084479;28;20174;-84
2021/12/16 02:52:11;;;;;;;136.40;37.77;;;3.40;99.90;;;;;;5052572;28;20186;-83
2021/12/16 02:54:37;;;;;;;144.93;41.80;;;3.40;99.90;;;;;;5069097;28;20181;-84
2021/12/16 02:57:04;;;;;;;121.17;32.20;;;3.40;99.90;;;;;;5068763;28;20182;-83
2021/12/16 02:59:31;;;;;;;126.93;38.03;;;3.40;99.90;;;;;;5079978;28;20208;-83
2021/12/16 03:02:06;;;;;;;131.27;37.53;;;3.40;99.90;;;;;;5098493;28;20178;-83
2021/12/16 03:04:33;;;;;;;114.37;34.33;;;3.40;99.90;;;;;;5081059;28;20170;-91
2021/12/16 03:07:00;;;;;;;149.13;39.30;;;3.40;99.90;;;;;;5080930;28;20159;-82
2021/12/16 03:14:53;;;;;;;126.87;33.57;;;3.50;99.90;;;;;;5094344;28;20186;-85
2021/12/16 03:17:38;;;;;;;117.60;31.80;;;3.50;99.90;;;;;;5081781;28;20163;-83
2021/12/16 03:20:13;;;;;;;113.03;31.23;;;3.70;99.90;;;;;;5083579;28;20157;-83
2021/12/16 03:25:25;;;;;;;129.60;30.30;;;3.90;99.90;;;;;;5055420;28;20240;-83
2021/12/16 03:33:47;;;;;;;134.43;31.03;;;4.10;99.90;;;;;;5073035;28;20676;-82
2021/12/16 03:36:27;;;;;;;134.17;31.10;;;4.20;99.90;;;;;;5042215;28;20572;-82
2021/12/16 03:39:00;;;;;;;128.80;29.20;;;4.30;99.90;;;;;;5072508;28;20305;-82
2021/12/16 03:41:27;;;;;;;106.00;29.00;;;4.30;99.90;;;;;;5048835;28;20231;-82
2021/12/16 03:43:55;;;;;;;105.93;24.60;;;4.30;99.90;;;;;;5054711;28;20581;-82
2021/12/16 03:46:26;;;;;;;127.90;28.97;;;4.30;99.90;;;;;;5054888;28;20182;-82
2021/12/16 03:49:10;;;;;;;111.73;26.83;;;4.40;99.90;;;;;;5054545;28;20700;-82
2021/12/16 03:51:50;;;;;;;122.90;30.10;;;4.40;99.90;;;;;;5076801;28;20291;-82
2021/12/16 03:54:31;;;;;;;138.20;32.03;;;4.40;99.90;;;;;;5072995;28;20178;-82
2021/12/16 03:56:58;;;;;;;140.43;33.00;;;4.50;99.90;;;;;;5054915;28;20598;-83
2021/12/16 03:59:28;;;;;;;142.67;31.60;;;4.50;99.90;;;;;;5072817;28;20243;-82
2021/12/16 04:01:56;;;;;;;138.77;30.63;;;4.60;99.90;;;;;;5072788;28;20175;-83
2021/12/16 04:04:22;;;;;;;149.47;29.27;;;4.60;99.90;;;;;;5054876;28;20684;-83
2021/12/16 04:06:48;;;;;;;151.30;31.57;;;4.60;99.90;;;;;;5072866;28;20179;-83
2021/12/16 04:09:17;;;;;;;143.90;31.17;;;4.70;99.90;;;;;;5058481;28;20648;-82
2021/12/16 04:11:50;;;;;;;136.93;31.43;;;4.70;99.90;;;;;;5058542;28;20185;-83
2021/12/16 04:14:17;;;;;;;149.67;33.50;;;4.70;99.90;;;;;;5058657;28;20510;-83
2021/12/16 04:16:48;;;;;;;134.33;31.07;;;4.80;99.90;;;;;;5058410;28;20227;-87
2021/12/16 04:19:18;;;;;;;140.07;29.23;;;4.70;99.90;;;;;;5058300;28;20215;-83
2021/12/16 04:21:52;;;;;;;142.67;33.43;;;4.80;99.90;;;;;;5057997;28;20183;-83
2021/12/16 04:24:18;;;;;;;138.00;29.37;;;4.70;99.90;;;;;;5076468;28;20171;-83
2021/12/16 04:26:46;;;;;;;133.03;28.40;;;4.80;99.90;;;;;;5075798;28;20182;-88
2021/12/16 04:29:13;;;;;;;150.70;31.03;;;4.90;99.90;;;;;;5076415;28;20186;-83
2021/12/16 04:31:39;;;;;;;97.87;26.37;;;4.90;99.90;;;;;;5058266;28;20227;-83
2021/12/16 04:34:07;;;;;;;118.83;28.37;;;4.90;99.90;;;;;;5041703;28;20186;-84
2021/12/16 04:36:34;;;;;;;113.20;27.13;;;4.90;99.90;;;;;;5058412;28;20190;-84
2021/12/16 04:39:04;;;;;;;117.73;27.00;;;4.80;99.90;;;;;;5075950;28;20202;-85
2021/12/16 04:41:30;;;;;;;142.43;29.57;;;4.90;99.90;;;;;;5058331;28;20586;-82
2021/12/16 04:43:56;;;;;;;136.10;27.90;;;4.90;99.90;;;;;;5057920;28;20175;-83
2021/12/16 04:46:27;;;;;;;157.40;31.93;;;4.90;99.90;;;;;;5041605;28;20264;-83
2021/12/16 04:48:55;;;;;;;120.57;27.80;;;4.90;99.90;;;;;;5057738;28;20711;-83
2021/12/16 04:51:23;;;;;;;166.97;33.27;;;4.80;99.90;;;;;;5057954;28;20186;-82
2021/12/16 04:53:49;;;;;;;133.47;28.10;;;4.90;99.90;;;;;;5057718;28;20179;-84
2021/12/16 04:56:16;;;;;;;124.30;27.40;;;4.80;99.90;;;;;;5058393;28;20707;-83
2021/12/16 04:58:45;;;;;;;127.13;24.33;;;4.80;99.90;;;;;;5025866;28;20225;-83
2021/12/16 05:01:11;;;;;;;127.23;25.97;;;4.80;99.90;;;;;;5075965;28;20271;-82
2021/12/16 05:03:37;;;;;;;138.17;27.70;;;4.80;99.90;;;;;;5049355;28;20224;-83
2021/12/16 05:06:07;;;;;;;124.10;25.87;;;4.80;99.90;;;;;;5065014;28;20179;-83
2021/12/16 05:08:34;;;;;;;122.37;30.17;;;4.80;99.90;;;;;;5077082;28;20182;-83
2021/12/16 05:11:02;;;;;;;128.27;26.57;;;4.80;99.90;;;;;;5067307;28;20228;-82
2021/12/16 05:13:29;;;;;;;106.07;24.23;;;4.80;99.90;;;;;;5055709;28;20536;-83
2021/12/16 05:16:00;;;;;;;88.60;22.73;;;4.80;99.90;;;;;;5058429;28;20277;-82
2021/12/16 05:18:31;;;;;;;103.53;24.33;;;4.80;99.90;;;;;;5057219;28;20251;-83
2021/12/16 05:20:59;;;;;;;92.87;25.07;;;4.80;99.90;;;;;;5072414;28;20231;-84
2021/12/16 05:28:37;;;;;;;98.73;23.90;;;4.90;99.90;;;;;;5057041;28;20296;-83
2021/12/16 05:31:03;;;;;;;94.37;23.37;;;4.90;99.90;;;;;;5070226;28;20234;-83
2021/12/16 05:33:29;;;;;;;98.23;22.60;;;4.80;99.90;;;;;;5094250;28;20189;-83
2021/12/16 05:35:56;;;;;;;102.83;22.17;;;4.90;99.90;;;;;;5089030;28;20189;-83
2021/12/16 05:38:23;;;;;;;91.17;21.07;;;4.80;99.90;;;;;;5091068;28;20218;-82
2021/12/16 05:40:49;;;;;;;118.43;26.27;;;4.80;99.90;;;;;;5059835;28;20194;-83
2021/12/16 05:43:18;;;;;;;106.37;25.27;;;4.90;99.90;;;;;;5074400;28;20262;-83
2021/12/16 05:45:46;;;;;;;131.20;36.93;;;4.90;99.90;;;;;;5094163;28;20229;-82
2021/12/16 05:48:14;;;;;;;107.87;24.77;;;4.80;99.90;;;;;;5084759;28;20201;-83
2021/12/16 05:50:43;;;;;;;110.80;25.50;;;4.80;99.90;;;;;;5074465;28;20630;-82
2021/12/16 05:53:10;;;;;;;101.83;25.03;;;4.80;99.90;;;;;;5073602;28;20211;-82
2021/12/16 05:55:36;;;;;;;100.53;22.60;;;4.70;99.90;;;;;;5087663;28;20186;-86
2021/12/16 05:58:05;;;;;;;112.70;24.27;;;4.80;99.90;;;;;;5058693;28;20214;-85
2021/12/16 06:00:36;;;;;;;112.00;27.07;;;4.80;99.90;;;;;;5080253;28;20269;-84
2021/12/16 06:03:02;;;;;;;111.70;25.73;;;4.80;99.90;;;;;;5055984;28;20178;-85
2021/12/16 06:05:28;;;;;;;118.23;27.80;;;4.90;99.90;;;;;;5074221;28;20192;-85
2021/12/16 06:07:54;;;;;;;111.17;23.77;;;4.80;99.90;;;;;;5040124;28;20266;-85
2021/12/16 06:13:10;;;;;;;106.60;25.23;;;4.80;99.90;;;;;;5036643;28;20278;-84
2021/12/16 06:15:58;;;;;;;100.53;24.23;;;4.80;99.90;;;;;;5039895;28;20186;-84
2021/12/16 06:29:33;;;;;;;137.43;28.07;;;4.80;99.90;;;;;;5073895;28;20245;-84
2021/12/16 06:31:59;;;;;;;124.57;25.03;;;4.80;99.90;;;;;;5073596;28;20535;-84
2021/12/16 06:34:25;;;;;;;115.10;26.87;;;4.80;99.90;;;;;;5055900;28;20185;-84
2021/12/16 06:36:51;;;;;;;119.27;28.47;;;4.80;99.90;;;;;;5056076;28;20545;-84
2021/12/16 06:39:16;;;;;;;135.37;27.03;;;4.80;99.90;;;;;;5055815;28;20219;-85
2021/12/16 06:41:42;;;;;;;130.27;27.93;;;4.90;99.90;;;;;;5066894;28;20174;-84
2021/12/16 06:44:22;;;;;;;125.93;26.50;;;4.90;99.90;;;;;;5093973;28;20212;-84
2021/12/16 06:46:57;;;;;;;121.07;27.30;;;4.90;99.90;;;;;;5078127;28;20215;-85
2021/12/16 06:49:23;;;;;;;119.20;28.00;;;4.90;99.90;;;;;;5078447;28;20181;-84
2021/12/16 06:52:00;;;;;;;132.27;27.47;;;4.90;99.90;;;;;;5058839;28;20183;-84
2021/12/16 06:54:44;;;;;;;126.10;28.90;;;;;;;;;;5077040;28;20177;-86
2021/12/16 06:57:21;;;;;;;113.60;27.77;;;4.70;99.90;;;;;;5075530;28;20185;-86
2021/12/16 06:59:55;;;;;;;137.60;28.53;;;4.50;99.90;;;;;;5093738;28;20181;-84
2021/12/16 07:05:31;;;;;;;129.33;27.93;;;4.90;99.90;;;;;;5030958;28;20187;-84
2021/12/16 07:07:58;;;;;;;138.17;28.10;;;4.90;99.90;;;;;;5083577;28;20602;-84
2021/12/16 07:10:24;;;;;;;110.30;27.27;;;5.00;99.90;;;;;;5058730;28;20522;-86
2021/12/16 07:12:50;;;;;;;139.80;29.43;;;;;;;;;;5075559;28;20611;-84
2021/12/16 07:15:22;;;;;;;106.23;27.17;;;4.90;99.90;;;;;;5092980;28;20185;-84
2021/12/16 07:17:50;;;;;;;113.17;28.40;;;5.00;99.90;;;;;;5075726;28;20258;-83
2021/12/16 07:20:20;;;;;;;122.33;29.30;;;5.20;99.90;;;;;;5093723;28;20200;-84
2021/12/16 07:22:46;;;;;;;118.87;27.43;;;;;;;;;;5075313;28;20178;-83
2021/12/16 07:25:12;;;;;;;126.50;29.20;;;5.00;99.90;;;;;;5074861;28;20651;-84
2021/12/16 07:27:39;;;;;;;152.03;37.13;;;5.20;99.90;;;;;;5093442;28;20209;-86
2021/12/16 07:30:13;;;;;;;146.23;37.90;;;5.00;99.90;;;;;;5094291;28;20271;-84
2021/12/16 07:32:39;;;;;;;134.97;32.40;;;5.00;99.90;;;;;;5095343;28;20266;-84
2021/12/16 07:35:08;;;;;;;94.70;24.67;;;4.70;99.90;;;;;;5078158;28;20206;-84
2021/12/16 07:37:34;;;;;;;118.17;30.77;;;4.90;99.90;;;;;;5093718;28;20175;-84
2021/12/16 07:40:06;;;;;;;125.23;30.90;;;4.90;99.90;;;;;;5075369;28;20189;-84
2021/12/16 07:42:43;;;;;;;130.77;30.47;;;4.90;99.90;;;;;;5094763;28;20544;-83
2021/12/16 07:45:09;;;;;;;119.47;29.43;;;4.90;99.90;;;;;;5078958;28;20189;-84
2021/12/16 07:47:35;;;;;;;114.10;30.30;;;4.90;99.90;;;;;;5062149;28;20182;-84
2021/12/16 07:50:01;;;;;;;115.83;29.37;;;;;;;;;;5079058;28;20175;-86
2021/12/16 07:52:27;;;;;;;116.77;30.30;;;4.90;99.90;;;;;;5078871;28;20193;-84
2021/12/16 07:54:52;;;;;;;118.57;30.30;;;4.90;99.90;;;;;;5062361;28;20179;-86
2021/12/16 07:57:19;;;;;;;117.70;29.70;;;5.00;99.90;;;;;;5062097;28;20196;-83
2021/12/16 07:59:45;;;;;;;121.43;32.43;;;5.10;99.90;;;;;;5078520;28;20320;-83
2021/12/16 08:02:11;;;;;;;116.00;31.00;;;5.10;99.90;;;;;;5079025;28;20179;-83
2021/12/16 08:04:42;;;;;;;124.73;31.70;;;5.20;99.90;;;;;;5079121;28;20174;-83
2021/12/16 08:07:10;;;;;;;112.73;31.20;;;5.20;99.90;;;;;;5096822;28;20580;-83
2021/12/16 08:09:41;;;;;;;105.10;30.37;;;5.20;99.90;;;;;;5078143;28;20190;-82
2021/12/16 08:12:10;;;;;;;117.80;29.50;;;5.30;99.90;;;;;;5096908;28;20684;-83
2021/12/16 08:14:36;;;;;;;102.20;29.87;;;5.40;99.90;;;;;;5096523;28;20188;-83
2021/12/16 08:17:02;;;;;;;114.80;29.73;;;5.30;99.90;;;;;;5078431;28;20261;-83
2021/12/16 08:19:28;;;;;;;114.47;31.07;;;5.30;99.90;;;;;;5095960;28;20202;-82
2021/12/16 08:21:54;;;;;;;114.70;31.20;;;5.30;99.90;;;;;;5078279;28;20182;-83
2021/12/16 08:24:20;;;;;;;105.63;29.93;;;5.30;99.90;;;;;;5078110;28;20274;-84
2021/12/16 08:26:48;;;;;;;116.53;31.90;;;5.30;99.90;;;;;;5061442;28;20206;-83
2021/12/16 08:29:15;;;;;;;105.23;30.27;;;5.30;99.90;;;;;;5078271;28;20198;-83
2021/12/16 08:31:41;;;;;;;107.33;30.73;;;5.30;99.90;;;;;;5095721;28;20234;-82
2021/12/16 08:34:07;;;;;;;121.27;34.30;;;5.30;99.90;;;;;;5096125;28;20178;-83
2021/12/16 08:36:34;;;;;;;103.47;30.17;;;5.40;99.90;;;;;;5078064;28;20174;-83
2021/12/16 08:39:07;;;;;;;123.23;31.83;;;5.40;99.90;;;;;;5061420;28;20206;-83
2021/12/16 08:41:37;;;;;;;111.43;32.73;;;5.50;99.90;;;;;;5096436;28;20178;-84
2021/12/16 08:44:03;;;;;;;124.73;34.40;;;5.50;99.90;;;;;;5096044;28;20167;-82
2021/12/16 08:46:33;;;;;;;117.43;29.13;;;5.50;99.90;;;;;;5077795;28;20253;-82
2021/12/16 08:48:59;;;;;;;110.17;31.13;;;5.60;99.90;;;;;;5078104;28;20232;-82
2021/12/16 08:51:29;;;;;;;102.97;31.17;;;5.50;99.90;;;;;;5096073;28;20181;-83
2021/12/16 08:53:56;;;;;;;113.07;33.37;;;5.60;99.90;;;;;;5077824;28;20323;-82
2021/12/16 08:56:22;;;;;;;102.23;32.77;;;5.70;99.90;;;;;;5098414;28;20177;-83
2021/12/16 08:58:49;;;;;;;104.37;31.67;;;5.70;99.90;;;;;;5080400;28;20244;-83
2021/12/16 09:01:19;;;;;;;119.03;33.23;;;5.70;99.90;;;;;;5079743;28;20183;-83
2021/12/16 09:03:45;;;;;;;106.57;32.53;;;5.60;99.90;;;;;;5097825;28;20166;-83
2021/12/16 09:06:11;;;;;;;115.87;31.83;;;5.60;99.90;;;;;;5079684;28;20177;-83
2021/12/16 09:08:38;;;;;;;123.17;33.93;;;5.60;99.90;;;;;;5062964;28;20187;-83
2021/12/16 09:11:07;;;;;;;111.97;33.37;;;5.60;99.90;;;;;;5097754;28;20174;-83
2021/12/16 09:13:35;;;;;;;85.53;27.77;;;5.60;99.90;;;;;;5079233;28;20178;-83
2021/12/16 09:16:05;;;;;;;110.93;33.27;;;5.60;99.90;;;;;;5079975;28;20272;-81
2021/12/16 09:18:33;;;;;;;103.30;34.63;;;5.70;99.90;;;;;;5079658;28;20224;-82
2021/12/16 09:21:02;;;;;;;104.97;33.87;;;5.60;99.90;;;;;;5079111;28;20174;-83
2021/12/16 09:23:28;;;;;;;108.43;34.10;;;5.60;99.90;;;;;;5098402;28;20174;-83
2021/12/16 09:25:54;;;;;;;105.67;32.77;;;5.60;99.90;;;;;;5063601;28;20180;-83
2021/12/16 09:28:21;;;;;;;109.40;32.63;;;5.60;99.90;;;;;;5066800;28;20195;-82
2021/12/16 09:30:47;;;;;;;116.07;33.60;;;5.60;99.90;;;;;;5088163;28;20233;-83
2021/12/16 09:33:16;;;;;;;100.60;29.80;;;5.60;99.90;;;;;;5105910;28;20182;-83
2021/12/16 09:35:44;;;;;;;97.63;32.27;;;5.60;99.90;;;;;;5106362;28;20183;-83
2021/12/16 09:38:13;;;;;;;114.13;34.07;;;5.60;99.90;;;;;;5107839;28;20661;-83
2021/12/16 09:40:47;;;;;;;113.57;34.67;;;5.60;99.90;;;;;;5120212;28;20240;-86
2021/12/16 09:43:13;;;;;;;111.47;33.97;;;5.60;99.90;;;;;;5114347;28;20177;-82
2021/12/16 09:45:40;;;;;;;104.40;33.80;;;5.60;99.90;;;;;;5068288;28;20187;-82
2021/12/16 09:48:05;;;;;;;113.67;34.50;;;5.60;99.90;;;;;;5099823;28;20239;-83
2021/12/16 09:50:32;;;;;;;107.97;32.43;;;5.60;99.90;;;;;;5087406;28;20567;-84
2021/12/16 09:53:00;;;;;;;115.70;34.27;;;5.70;99.90;;;;;;5092515;28;20199;-83
2021/12/16 09:55:27;;;;;;;112.97;32.73;;;5.60;99.90;;;;;;5110871;28;20173;-82
2021/12/16 09:57:54;;;;;;;87.57;30.03;;;;;;;;;;5116600;28;20194;-82
2021/12/16 10:00:24;;;;;;;119.77;37.87;;;5.70;99.90;;;;;;5102728;28;20234;-82
2021/12/16 10:02:52;;;;;;;97.23;29.60;;;5.70;99.90;;;;;;5115072;28;20189;-82
2021/12/16 10:05:18;;;;;;;78.17;28.00;;;5.70;99.90;;;;;;5095822;28;20184;-83
2021/12/16 10:07:44;;;;;;;110.00;34.13;;;5.80;99.90;;;;;;5115025;28;20179;-85
2021/12/16 10:10:17;;;;;;;110.50;32.97;;;5.80;99.90;;;;;;5098929;28;20182;-82
2021/12/16 10:12:45;;;;;;;102.03;35.23;;;5.80;99.90;;;;;;5093034;28;20243;-82
2021/12/16 10:18:10;;;;;;;81.47;29.47;;;5.90;99.90;;;;;;5094166;28;20217;-82
2021/12/16 10:20:46;;;;;;;87.80;30.80;;;5.90;99.90;;;;;;5094173;28;20174;-82
2021/12/16 10:23:19;;;;;;;100.63;32.43;;;5.90;99.90;;;;;;5094348;28;20177;-83
2021/12/16 10:25:47;;;;;;;84.30;30.30;;;5.80;99.90;;;;;;5075809;28;20271;-83
2021/12/16 10:28:17;;;;;;;75.30;27.50;;;5.90;99.90;;;;;;5075906;28;20265;-83
2021/12/16 10:31:03;;;;;;;77.43;28.83;;;5.90;99.90;;;;;;5090520;28;20277;-82
2021/12/16 10:33:39;;;;;;;81.43;28.23;;;5.90;99.90;;;;;;5072388;28;20186;-83
2021/12/16 10:36:22;;;;;;;75.00;25.47;;;5.90;99.90;;;;;;5074061;28;20183;-83
2021/12/16 10:38:59;;;;;;;70.23;26.20;;;5.90;99.90;;;;;;5073911;28;20217;-84
2021/12/16 10:41:30;;;;;;;81.97;29.20;;;5.90;99.90;;;;;;5074247;28;20192;-84
2021/12/16 10:44:12;;;;;;;82.63;30.80;;;6.00;99.90;;;;;;5072236;28;20179;-84
2021/12/16 10:46:43;;;;;;;105.13;36.30;;;6.00;99.90;;;;;;5062938;28;20194;-83
2021/12/16 10:49:12;;;;;;;90.70;31.10;;;6.00;99.90;;;;;;5073822;28;20194;-83
2021/12/16 10:51:47;;;;;;;89.53;32.73;;;6.00;99.90;;;;;;5073236;28;20179;-84
2021/12/16 10:54:30;;;;;;;104.20;38.63;;;6.00;99.90;;;;;;5055495;28;20189;-84
2021/12/16 10:57:10;;;;;;;108.17;37.73;;;6.00;99.90;;;;;;5073278;28;20175;-84
2021/12/16 10:59:58;;;;;;;88.93;33.33;;;6.10;99.90;;;;;;5055619;28;20272;-83
2021/12/16 11:02:27;;;;;;;90.37;32.70;;;6.10;99.90;;;;;;5055227;28;20551;-84
2021/12/16 11:05:06;;;;;;;89.47;32.23;;;6.10;99.90;;;;;;5057071;28;20183;-83
2021/12/16 11:07:45;;;;;;;95.40;35.10;;;6.10;99.90;;;;;;5056895;28;20187;-82
2021/12/16 11:10:21;;;;;;;86.13;32.37;;;6.10;99.90;;;;;;5056617;28;20754;-82
2021/12/16 11:12:50;;;;;;;89.37;33.70;;;6.10;99.90;;;;;;5057362;28;20175;-81
2021/12/16 11:15:21;;;;;;;85.87;32.13;;;5.80;99.90;;;;;;5055831;28;20266;-82
2021/12/16 11:17:56;;;;;;;102.03;38.17;;;6.10;99.90;;;;;;5054354;28;20187;-83
2021/12/16 11:20:25;;;;;;;85.03;32.33;;;6.10;99.90;;;;;;5073241;28;20185;-83
2021/12/16 11:22:57;;;;;;;77.50;29.17;;;6.10;99.90;;;;;;5072998;28;20694;-85
2021/12/16 11:25:23;;;;;;;79.00;30.13;;;;;;;;;;5073381;28;20555;-84
2021/12/16 11:28:08;;;;;;;77.70;30.57;;;6.10;99.90;;;;;;5054905;28;20249;-82
2021/12/16 11:30:39;;;;;;;86.53;36.77;;;6.10;99.90;;;;;;5081096;28;20985;-82
2021/12/16 11:33:15;;;;;;;72.90;28.60;;;6.20;99.90;;;;;;5072523;28;20233;-83
2021/12/16 11:35:51;;;;;;;71.00;28.43;;;6.60;99.90;;;;;;5054901;28;20178;-83
2021/12/16 11:38:38;;;;;;;81.53;29.50;;;6.20;99.90;;;;;;5073276;28;20207;-85
2021/12/16 11:41:22;;;;;;;68.17;27.43;;;6.20;99.90;;;;;;5055813;28;20554;-84
2021/12/16 11:44:17;;;;;;;67.20;27.33;;;6.20;99.90;;;;;;5073405;28;20364;-85
2021/12/16 11:46:43;;;;;;;55.07;22.60;;;;;;;;;;5073423;28;20195;-85
2021/12/16 11:49:09;;;;;;;48.33;21.17;;;6.20;99.90;;;;;;5081134;28;20179;-84
2021/12/16 11:51:50;;;;;;;47.10;23.77;;;6.20;99.90;;;;;;5084730;28;20231;-85
2021/12/16 11:54:22;;;;;;;57.87;21.63;;;6.30;99.90;;;;;;5083915;28;20246;-84
2021/12/16 11:57:04;;;;;;;64.80;26.60;;;6.20;99.90;;;;;;5063593;28;20175;-84
2021/12/16 11:59:54;;;;;;;55.40;21.43;;;6.20;99.90;;;;;;5078054;28;20203;-84
2021/12/16 12:02:27;;;;;;;57.07;25.10;;;6.20;99.90;;;;;;5061594;28;20266;-83
2021/12/16 12:05:14;;;;;;;57.17;24.40;;;6.20;99.90;;;;;;5069777;28;20178;-84
2021/12/16 12:07:50;;;;;;;49.93;22.53;;;6.20;99.90;;;;;;5056384;28;20207;-85
2021/12/16 12:10:32;;;;;;;49.27;22.10;;;6.30;99.90;;;;;;5069081;28;20193;-84
2021/12/16 12:13:02;;;;;;;51.70;22.50;;;6.20;99.90;;;;;;5075672;28;20187;-84
2021/12/16 12:15:28;;;;;;;55.97;23.67;;;;;;;;;;5044159;28;20184;-84
2021/12/16 12:17:57;;;;;;;71.50;30.37;;;6.20;99.90;;;;;;5060324;28;20217;-84
2021/12/16 12:20:33;;;;;;;53.97;22.27;;;6.20;99.90;;;;;;5075091;28;20179;-85
2021/12/16 12:23:00;;;;;;;78.53;27.33;;;6.20;99.90;;;;;;5074753;28;20174;-84
2021/12/16 12:25:26;;;;;;;73.03;28.50;;;6.30;99.90;;;;;;5074984;28;20662;-84
2021/12/16 12:27:52;;;;;;;57.80;24.70;;;6.30;99.90;;;;;;5069673;28;20210;-84
2021/12/16 12:30:19;;;;;;;62.93;27.47;;;6.30;99.90;;;;;;5063910;28;20249;-85
2021/12/16 12:32:48;;;;;;;65.47;27.33;;;6.30;99.90;;;;;;5063597;28;20175;-84
2021/12/16 12:35:25;;;;;;;60.77;24.90;;;6.30;99.90;;;;;;5060267;28;20229;-83
2021/12/16 12:37:56;;;;;;;51.57;21.33;;;6.30;99.90;;;;;;5064581;28;20738;-82
2021/12/16 12:40:30;;;;;;;64.73;27.60;;;6.30;99.90;;;;;;5066616;28;20202;-83
2021/12/16 12:42:57;;;;;;;67.07;28.13;;;6.30;99.90;;;;;;5063314;28;20171;-83
2021/12/16 12:45:30;;;;;;;48.57;20.07;;;6.30;99.90;;;;;;5064271;28;20164;-83
2021/12/16 12:47:59;;;;;;;50.47;22.20;;;6.40;99.90;;;;;;5064168;28;20192;-83
2021/12/16 12:50:25;;;;;;;69.27;26.93;;;6.40;99.90;;;;;;5066114;28;20168;-84
2021/12/16 12:52:53;;;;;;;57.90;25.77;;;6.40;99.90;;;;;;5059743;28;20180;-84
2021/12/16 12:55:29;;;;;;;67.37;28.53;;;6.40;99.90;;;;;;5054855;28;20187;-88
2021/12/16 12:58:17;;;;;;;71.70;28.13;;;7.10;99.90;;;;;;5054296;28;20208;-84
2021/12/16 13:01:00;;;;;;;81.30;30.37;;;6.40;99.90;;;;;;5055914;28;20242;-83
2021/12/16 13:03:29;;;;;;;68.33;30.17;;;6.40;99.90;;;;;;5055589;28;20520;-83
2021/12/16 13:06:04;;;;;;;60.60;26.07;;;6.40;99.90;;;;;;5054133;28;20202;-83
2021/12/16 13:08:36;;;;;;;65.83;24.47;;;6.40;99.90;;;;;;5054060;28;20648;-83
2021/12/16 13:11:06;;;;;;;69.33;26.03;;;6.40;99.90;;;;;;5054016;28;20527;-88
2021/12/16 13:27:37;;;;;;;68.73;25.00;;;6.30;99.90;;;;;;5055405;28;20175;-84
2021/12/16 13:30:18;;;;;;;71.07;24.70;;;5.00;99.90;;;;;;5055759;28;20176;-84
2021/12/16 13:33:25;;;;;;;79.50;29.13;;;6.40;99.90;;;;;;5057452;28;20175;-84
2021/12/16 13:36:03;;;;;;;87.40;32.30;;;6.40;99.90;;;;;;5057013;28;20270;-84
2021/12/16 13:38:41;;;;;;;78.10;31.03;;;6.40;99.90;;;;;;5056708;28;20214;-84
2021/12/16 13:41:14;;;;;;;60.20;24.93;;;6.40;99.90;;;;;;5056028;28;20225;-85
2021/12/16 13:43:56;;;;;;;56.53;25.40;;;6.40;99.90;;;;;;5074567;28;20708;-84
2021/12/16 14:08:34;;;;;;;49.90;22.37;;;;;;;;;;5096883;28;20634;-86
2021/12/16 14:11:11;;;;;;;40.83;18.87;;;6.50;99.90;;;;;;5082304;28;20650;-84
2021/12/16 14:16:33;;;;;;;30.50;16.43;;;6.50;99.90;;;;;;5080875;28;20573;-84
2021/12/16 14:45:29;;;;;;;43.60;20.50;;;6.60;99.90;;;;;;5093502;28;20659;-84
2021/12/16 14:51:00;;;;;;;40.03;19.93;;;6.60;99.90;;;;;;5092955;28;20643;-83
2021/12/16 14:53:38;;;;;;;42.77;20.10;;;6.70;99.90;;;;;;5074457;28;20295;-84
2021/12/16 14:56:07;;;;;;;45.30;21.07;;;;;;;;;;5093303;28;20769;-85
2021/12/16 15:01:36;;;;;;;53.77;24.73;;;6.60;99.90;;;;;;5047731;28;20638;-84
2021/12/16 15:04:05;;;;;;;41.80;21.13;;;6.60;99.90;;;;;;5072807;28;20312;-84
2021/12/16 15:06:50;;;;;;;45.20;20.10;;;6.60;99.90;;;;;;5072384;28;20254;-84
2021/12/16 15:09:27;;;;;;;46.23;20.43;;;6.60;99.90;;;;;;5057159;28;20205;-84
2021/12/16 15:12:04;;;;;;;41.13;20.67;;;6.50;99.90;;;;;;5083328;28;20261;-85
2021/12/16 15:40:41;;;;;;;41.33;22.90;;;6.50;99.90;;;;;;5058008;28;20290;-85
2021/12/16 15:43:13;;;;;;;40.23;21.87;;;6.50;99.90;;;;;;5073157;28;20678;-85
2021/12/16 15:45:54;;;;;;;34.60;19.67;;;6.50;99.90;;;;;;5081772;28;20235;-84
2021/12/16 15:48:26;;;;;;;33.43;18.40;;;6.50;99.90;;;;;;5075592;28;20262;-84
2021/12/16 15:51:00;;;;;;;44.43;25.13;;;6.50;99.90;;;;;;5077392;28;20607;-83
2021/12/16 15:53:35;;;;;;;32.60;18.77;;;6.50;99.90;;;;;;5078674;28;20179;-85
2021/12/16 15:56:23;;;;;;;30.63;16.90;;;6.50;99.90;;;;;;5096816;28;20165;-84
2021/12/16 15:58:55;;;;;;;24.43;14.13;;;6.60;99.90;;;;;;5078468;28;20759;-84
2021/12/16 16:01:27;;;;;;;24.13;13.40;;;6.60;99.90;;;;;;5113145;28;20217;-85
2021/12/16 16:03:53;;;;;;;25.17;13.07;;;6.60;99.90;;;;;;5109635;28;20170;-82
2021/12/16 16:06:20;;;;;;;22.60;15.13;;;6.60;99.90;;;;;;5090397;28;20212;-84
2021/12/16 16:08:53;;;;;;;23.60;14.00;;;6.60;99.90;;;;;;5104272;28;20246;-84
2021/12/16 16:11:23;;;;;;;23.23;13.13;;;6.60;99.90;;;;;;5095019;28;20289;-86
2021/12/16 16:13:54;;;;;;;24.47;14.40;;;6.60;99.90;;;;;;5115894;28;20207;-86
2021/12/16 16:16:27;;;;;;;21.97;12.43;;;6.60;99.90;;;;;;5102563;28;20175;-86
2021/12/16 16:18:56;;;;;;;21.27;11.83;;;6.60;99.90;;;;;;5121080;28;20178;-86
2021/12/16 16:21:36;;;;;;;21.07;12.20;;;6.60;99.90;;;;;;5103802;28;20209;-84
2021/12/16 16:24:08;;;;;;;21.83;13.33;;;6.60;99.90;;;;;;5101341;28;20194;-85
2021/12/16 16:26:38;;;;;;;19.33;11.57;;;6.50;99.90;;;;;;5078754;28;20535;-86
2021/12/16 16:29:06;;;;;;;20.03;11.63;;;6.60;99.90;;;;;;5078567;28;20275;-85
2021/12/16 16:31:35;;;;;;;20.13;11.70;;;6.50;99.90;;;;;;5096921;28;20280;-87
2021/12/16 16:34:08;;;;;;;23.43;13.63;;;6.50;99.90;;;;;;5078476;28;20185;-85
2021/12/16 16:36:43;;;;;;;25.00;14.37;;;6.40;99.90;;;;;;5062645;28;20661;-86
2021/12/16 16:39:13;;;;;;;33.10;15.17;;;6.50;99.90;;;;;;5096481;28;20333;-84
2021/12/16 16:41:58;;;;;;;23.83;14.43;;;6.40;99.90;;;;;;5096042;28;20232;-85
2021/12/16 16:44:25;;;;;;;31.13;14.67;;;6.40;99.90;;;;;;5078259;28;20575;-84
2021/12/16 16:47:09;;;;;;;29.17;15.90;;;6.30;99.90;;;;;;5061290;28;20583;-85
2021/12/16 16:49:46;;;;;;;38.17;20.13;;;3.60;99.90;;;;;;5069036;28;20197;-85
2021/12/16 16:52:20;;;;;;;26.33;14.30;;;6.30;99.90;;;;;;5075372;28;20700;-84
2021/12/16 16:54:52;;;;;;;26.43;15.77;;;6.20;99.90;;;;;;5075226;28;20229;-83
2021/12/16 16:57:30;;;;;;;33.80;16.83;;;6.20;99.90;;;;;;5071264;28;20187;-83
2021/12/16 16:59:59;;;;;;;30.83;17.50;;;6.10;99.90;;;;;;5067243;28;20210;-83